Time;durP1;ratioP1;P1;durP2;ratioP2;P2;SDS_P1;SDS_P2;PMS_P1;PMS_P2;Temp;Humidity;BMP_temperature;BMP_pressure;BME280_temperature;BME280_humidity;BME280_pressure;Samples;Min_cycle;Max_cycle;Signal;HPM_P1;HPM_P2
2021/08/15 00:00:33;;;;;;;4.55;3.40;;;;;;;;;;10444687;27;20074;-60
2021/08/15 00:05:32;;;;;;;7.43;3.60;;;;;;;;;;10444466;27;20054;-59
2021/08/15 00:10:30;;;;;;;5.35;3.55;;;;;;;;;;10444127;27;20522;-60
2021/08/15 00:15:30;;;;;;;4.28;3.10;;;;;;;;;;10444415;27;20039;-60
2021/08/15 00:20:28;;;;;;;4.90;3.40;;;;;;;;;;10442839;27;20518;-60
2021/08/15 00:25:27;;;;;;;5.57;3.80;;;;;;;;;;10444075;27;20079;-58
2021/08/15 00:30:26;;;;;;;4.25;3.38;;;;;;;;;;10443705;27;20043;-59
2021/08/15 00:35:25;;;;;;;7.40;3.38;;;;;;;;;;10443770;27;20046;-59
2021/08/15 00:40:24;;;;;;;4.93;3.70;;;;;;;;;;10442492;27;20484;-59
2021/08/15 00:45:22;;;;;;;6.82;3.90;;;;;;;;;;10443292;27;20046;-59
2021/08/15 00:50:20;;;;;;;4.80;3.85;;;;;;;;;;10442423;27;20097;-59
2021/08/15 00:55:20;;;;;;;6.03;3.85;;;;;;;;;;10442623;27;20459;-59
2021/08/15 01:00:19;;;;;;;8.38;3.80;;;;;;;;;;10442478;27;20047;-59
2021/08/15 01:05:17;;;;;;;7.10;4.25;;;;;;;;;;10442833;27;20082;-59
2021/08/15 01:10:16;;;;;;;8.57;4.20;;;;;;;;;;10442063;27;20071;-59
2021/08/15 01:15:16;;;;;;;6.40;3.92;;;;;;;;;;10442072;27;20043;-58
2021/08/15 01:20:15;;;;;;;5.95;3.70;;;;;;;;;;10440556;27;20508;-59
2021/08/15 01:25:14;;;;;;;8.00;3.97;;;;;;;;;;10441458;27;20047;-59
2021/08/15 01:30:14;;;;;;;6.28;4.50;;;;;;;;;;10440877;27;20542;-59
2021/08/15 01:35:12;;;;;;;5.45;4.38;;;;;;;;;;10442640;27;20074;-60
2021/08/15 01:40:12;;;;;;;4.50;3.80;;;;;;;;;;10440927;27;20078;-61
2021/08/15 01:45:11;;;;;;;7.40;3.92;;;;;;;;;;10440544;27;20055;-61
2021/08/15 01:50:11;;;;;;;7.40;4.28;;;;;;;;;;10441271;27;20066;-61
2021/08/15 01:55:10;;;;;;;6.93;4.55;;;;;;;;;;10441119;27;20075;-61
2021/08/15 02:00:09;;;;;;;5.30;4.03;;;;;;;;;;10441770;27;20055;-61
2021/08/15 02:05:16;;;;;;;5.80;4.53;;;;;;;;;;10453347;27;20050;-61
2021/08/15 02:10:15;;;;;;;9.02;4.63;;;;;;;;;;10448711;27;20483;-60
2021/08/15 02:15:13;;;;;;;6.22;4.15;;;;;;;;;;10430133;27;20043;-61
2021/08/15 02:20:13;;;;;;;9.00;4.43;;;;;;;;;;10448898;27;20047;-59
2021/08/15 02:25:13;;;;;;;7.55;3.67;;;;;;;;;;10448858;27;20062;-59
2021/08/15 02:30:12;;;;;;;6.95;4.30;;;;;;;;;;10448621;27;20085;-59
2021/08/15 02:35:11;;;;;;;6.82;4.00;;;;;;;;;;10448606;27;20075;-59
2021/08/15 02:40:12;;;;;;;4.75;4.10;;;;;;;;;;10448030;27;20078;-59
2021/08/15 02:45:12;;;;;;;4.60;4.18;;;;;;;;;;10448321;27;20062;-59
2021/08/15 02:50:11;;;;;;;4.82;4.32;;;;;;;;;;10447858;27;20507;-60
2021/08/15 02:55:11;;;;;;;5.07;4.28;;;;;;;;;;10446350;27;20086;-60
2021/08/15 03:00:10;;;;;;;5.00;4.45;;;;;;;;;;10433496;27;20043;-60
2021/08/15 03:05:09;;;;;;;9.45;4.28;;;;;;;;;;10463325;27;20058;-59
2021/08/15 03:10:09;;;;;;;5.70;4.82;;;;;;;;;;10447239;27;20082;-60
2021/08/15 03:15:09;;;;;;;5.38;4.25;;;;;;;;;;10485358;27;20090;-59
2021/08/15 03:20:09;;;;;;;6.78;4.57;;;;;;;;;;10486803;27;20051;-59
2021/08/15 03:25:07;;;;;;;7.47;4.63;;;;;;;;;;10487567;27;20043;-59
2021/08/15 03:30:06;;;;;;;4.68;4.07;;;;;;;;;;10487475;27;20082;-60
2021/08/15 03:35:06;;;;;;;5.55;4.30;;;;;;;;;;10487720;27;20050;-60
2021/08/15 03:40:05;;;;;;;5.07;4.22;;;;;;;;;;10487791;27;20047;-60
2021/08/15 03:45:04;;;;;;;6.85;4.40;;;;;;;;;;10488067;27;20410;-60
2021/08/15 03:50:04;;;;;;;9.88;4.55;;;;;;;;;;10487372;27;20078;-60
2021/08/15 03:55:04;;;;;;;6.50;4.72;;;;;;;;;;10486667;27;20047;-59
2021/08/15 04:00:03;;;;;;;6.32;4.60;;;;;;;;;;10486390;27;20042;-60
2021/08/15 04:05:02;;;;;;;6.00;3.80;;;;;;;;;;10486213;27;20058;-60
2021/08/15 04:10:02;;;;;;;6.53;3.55;;;;;;;;;;10486765;27;20156;-59
2021/08/15 04:15:02;;;;;;;7.78;4.35;;;;;;;;;;10486541;27;20043;-59
2021/08/15 04:20:00;;;;;;;6.68;3.72;;;;;;;;;;10478409;27;20085;-61
2021/08/15 04:24:59;;;;;;;7.13;4.10;;;;;;;;;;10467102;27;20074;-60
2021/08/15 04:29:57;;;;;;;7.75;4.20;;;;;;;;;;10465815;27;20081;-61
2021/08/15 04:34:57;;;;;;;5.82;3.97;;;;;;;;;;10463915;27;20179;-59
2021/08/15 04:39:55;;;;;;;9.82;4.28;;;;;;;;;;10470195;27;20066;-60
2021/08/15 04:44:54;;;;;;;5.63;3.88;;;;;;;;;;10473951;27;20042;-60
2021/08/15 04:49:52;;;;;;;10.98;4.30;;;;;;;;;;10481789;27;20062;-60
2021/08/15 04:54:51;;;;;;;5.45;4.78;;;;;;;;;;10480101;27;20069;-61
2021/08/15 04:59:50;;;;;;;7.20;4.43;;;;;;;;;;10471789;27;20075;-60
2021/08/15 05:04:48;;;;;;;4.40;3.47;;;;;;;;;;10463125;27;20074;-61
2021/08/15 05:09:46;;;;;;;5.43;3.90;;;;;;;;;;10458073;27;20089;-61
2021/08/15 05:14:46;;;;;;;7.78;3.90;;;;;;;;;;10471151;27;20038;-62
2021/08/15 05:19:44;;;;;;;5.28;4.57;;;;;;;;;;10470660;27;20093;-61
2021/08/15 05:24:43;;;;;;;7.00;4.65;;;;;;;;;;10440552;27;20055;-61
2021/08/15 05:29:41;;;;;;;14.43;4.47;;;;;;;;;;10451866;27;20507;-61
2021/08/15 05:34:41;;;;;;;6.10;4.25;;;;;;;;;;10468368;27;20136;-60
2021/08/15 05:39:39;;;;;;;7.50;4.35;;;;;;;;;;10477605;27;20066;-61
2021/08/15 05:44:37;;;;;;;14.30;12.75;;;;;;;;;;10476961;27;20486;-60
2021/08/15 05:49:36;;;;;;;6.70;4.25;;;;;;;;;;10478048;27;20625;-60
2021/08/15 05:54:35;;;;;;;8.23;4.20;;;;;;;;;;10481082;27;20453;-62
2021/08/15 05:59:34;;;;;;;10.07;5.40;;;;;;;;;;10483013;27;20039;-62
2021/08/15 06:04:32;;;;;;;8.55;4.80;;;;;;;;;;10481937;27;20078;-63
2021/08/15 06:09:30;;;;;;;9.25;4.68;;;;;;;;;;10481849;27;20043;-60
2021/08/15 06:14:30;;;;;;;9.05;4.60;;;;;;;;;;10482821;27;20470;-63
2021/08/15 06:19:29;;;;;;;10.32;5.07;;;;;;;;;;10462923;27;20053;-62
2021/08/15 06:24:27;;;;;;;12.68;4.22;;;;;;;;;;10482540;27;20043;-62
2021/08/15 06:29:25;;;;;;;16.77;14.18;;;;;;;;;;10463359;27;20046;-60
2021/08/15 06:34:25;;;;;;;9.50;5.20;;;;;;;;;;10480465;27;20081;-62
2021/08/15 06:39:23;;;;;;;21.23;8.80;;;;;;;;;;10481500;27;20043;-62
2021/08/15 06:44:22;;;;;;;12.82;6.07;;;;;;;;;;10482229;27;20201;-62
2021/08/15 06:49:20;;;;;;;9.73;4.05;;;;;;;;;;10488717;27;20039;-63
2021/08/15 06:54:20;;;;;;;6.68;4.38;;;;;;;;;;10489711;27;20155;-62
2021/08/15 06:59:18;;;;;;;7.82;4.95;;;;;;;;;;10489754;27;20038;-62
2021/08/15 07:04:16;;;;;;;6.28;4.65;;;;;;;;;;10488569;27;20043;-62
2021/08/15 07:09:14;;;;;;;5.28;4.55;;;;;;;;;;10488974;27;20039;-62
2021/08/15 07:14:14;;;;;;;10.63;4.45;;;;;;;;;;10488269;27;20536;-61
2021/08/15 07:19:12;;;;;;;9.82;4.55;;;;;;;;;;10488272;27;20055;-61
2021/08/15 07:24:11;;;;;;;6.32;4.20;;;;;;;;;;10487828;27;20415;-62
2021/08/15 07:29:09;;;;;;;9.48;4.18;;;;;;;;;;10488554;27;20050;-62
2021/08/15 07:34:09;;;;;;;6.60;3.78;;;;;;;;;;10487854;27;20074;-62
2021/08/15 07:39:07;;;;;;;7.65;3.65;;;;;;;;;;10488114;27;20034;-62
2021/08/15 07:44:05;;;;;;;4.78;3.63;;;;;;;;;;10487989;27;20050;-61
2021/08/15 07:49:04;;;;;;;8.55;5.15;;;;;;;;;;10486806;27;20407;-62
2021/08/15 07:54:04;;;;;;;10.13;8.27;;;;;;;;;;10487337;27;20077;-61
2021/08/15 07:59:02;;;;;;;10.48;4.35;;;;;;;;;;10485307;27;20049;-61
2021/08/15 08:04:04;;;;;;;7.43;5.57;;;;;;;;;;10486215;27;20050;-63
2021/08/15 08:09:03;;;;;;;9.15;5.10;;;;;;;;;;10486852;27;20039;-61
2021/08/15 08:14:02;;;;;;;7.63;4.13;;;;;;;;;;10486578;27;20073;-62
2021/08/15 08:19:00;;;;;;;10.25;4.28;;;;;;;;;;10486669;27;20042;-61
2021/08/15 08:24:02;;;;;;;9.68;4.85;;;;;;;;;;10486138;27;20046;-62
2021/08/15 08:29:02;;;;;;;12.23;6.40;;;;;;;;;;10484890;27;20434;-61
2021/08/15 08:34:00;;;;;;;13.85;8.00;;;;;;;;;;10486009;27;20077;-60
2021/08/15 08:38:59;;;;;;;10.15;4.82;;;;;;;;;;10485055;27;20503;-61
2021/08/15 08:43:57;;;;;;;6.57;4.20;;;;;;;;;;10485433;27;20038;-62
2021/08/15 08:48:57;;;;;;;8.05;3.97;;;;;;;;;;10485285;27;20081;-62
2021/08/15 08:53:55;;;;;;;7.07;4.50;;;;;;;;;;10485116;27;20038;-63
2021/08/15 08:58:54;;;;;;;7.53;5.20;;;;;;;;;;10484989;27;20398;-62
2021/08/15 09:03:53;;;;;;;7.78;5.22;;;;;;;;;;10484378;27;20086;-62
2021/08/15 09:08:53;;;;;;;11.43;4.80;;;;;;;;;;10483292;27;20039;-62
2021/08/15 09:14:02;;;;;;;10.73;5.65;;;;;;;;;;10483606;27;20070;-61
2021/08/15 09:19:00;;;;;;;11.65;4.93;;;;;;;;;;10482294;27;20051;-61
2021/08/15 09:24:00;;;;;;;8.15;6.35;;;;;;;;;;10483978;27;20047;-64
2021/08/15 09:28:59;;;;;;;9.82;5.25;;;;;;;;;;10483048;27;20042;-61
2021/08/15 09:33:58;;;;;;;9.23;5.72;;;;;;;;;;10483533;27;20074;-61
2021/08/15 09:38:58;;;;;;;8.88;4.60;;;;;;;;;;10483036;27;20046;-62
2021/08/15 09:44:24;;;;;;;9.38;6.30;;;;;;;;;;10463825;27;20051;-61
2021/08/15 09:49:24;;;;;;;9.13;4.68;;;;;;;;;;10463037;27;20529;-61
2021/08/15 09:54:22;;;;;;;9.63;4.68;;;;;;;;;;10482955;27;20469;-62
2021/08/15 09:59:21;;;;;;;6.15;5.07;;;;;;;;;;10481451;27;20043;-61
2021/08/15 10:04:20;;;;;;;7.57;4.60;;;;;;;;;;10482059;27;20046;-62
2021/08/15 10:09:21;;;;;;;5.00;4.47;;;;;;;;;;10482780;27;20058;-62
2021/08/15 10:14:20;;;;;;;5.70;4.47;;;;;;;;;;10481459;27;20085;-61
2021/08/15 10:19:20;;;;;;;7.95;4.57;;;;;;;;;;10481941;27;20089;-60
2021/08/15 10:24:18;;;;;;;8.07;4.68;;;;;;;;;;10488534;27;20163;-61
2021/08/15 10:29:35;;;;;;;7.15;5.15;;;;;;;;;;10489787;27;20684;-62
2021/08/15 10:34:49;;;;;;;5.30;4.03;;;;;;;;;;10489529;27;20053;-61
2021/08/15 10:39:47;;;;;;;5.90;4.37;;;;;;;;;;10490673;27;20049;-61
2021/08/15 10:50:09;;;;;;;6.13;5.45;;;;;;;;;;10351645;27;20385;-62
2021/08/15 10:55:09;;;;;;;7.15;4.95;;;;;;;;;;10351711;28;20040;-61
2021/08/15 11:00:26;;;;;;;7.18;4.50;;;;;;;;;;10351564;28;20048;-61
2021/08/15 11:05:36;;;;;;;6.15;5.30;;;;;;;;;;10351297;28;20047;-62
2021/08/15 11:10:49;;;;;;;10.23;6.65;;;;;;;;;;10352107;28;20422;-61
2021/08/15 11:15:47;;;;;;;6.50;4.97;;;;;;;;;;10351055;28;20080;-62
2021/08/15 11:20:49;;;;;;;13.63;5.25;;;;;;;;;;10351273;28;20047;-61
2021/08/15 11:25:48;;;;;;;6.45;4.85;;;;;;;;;;10350737;28;20098;-61
2021/08/15 11:30:53;;;;;;;5.38;4.82;;;;;;;;;;10349441;28;20610;-61
2021/08/15 11:35:55;;;;;;;6.35;4.88;;;;;;;;;;10350329;28;20048;-62
2021/08/15 11:40:54;;;;;;;5.28;4.40;;;;;;;;;;10350566;28;20080;-62
2021/08/15 11:45:54;;;;;;;4.80;4.30;;;;;;;;;;10349933;28;20079;-61
2021/08/15 11:50:55;;;;;;;6.88;5.50;;;;;;;;;;10350156;28;20077;-62
2021/08/15 11:55:54;;;;;;;9.10;4.32;;;;;;;;;;10349553;28;20045;-62
2021/08/15 12:00:53;;;;;;;4.72;4.22;;;;;;;;;;10325357;28;20041;-60
2021/08/15 12:05:52;;;;;;;8.27;4.35;;;;;;;;;;10322052;28;20045;-61
2021/08/15 12:10:53;;;;;;;14.10;4.75;;;;;;;;;;10321259;28;20052;-61
2021/08/15 12:15:55;;;;;;;10.75;5.78;;;;;;;;;;10321141;28;20044;-61
2021/08/15 12:20:54;;;;;;;6.20;5.57;;;;;;;;;;10321285;28;20087;-61
2021/08/15 12:26:04;;;;;;;10.73;5.20;;;;;;;;;;10321292;28;20287;-61
2021/08/15 12:31:23;;;;;;;7.45;4.88;;;;;;;;;;10320821;28;20076;-61
2021/08/15 12:36:22;;;;;;;4.63;4.10;;;;;;;;;;10320741;28;20056;-63
2021/08/15 12:41:26;;;;;;;6.40;4.00;;;;;;;;;;10321163;28;20040;-61
2021/08/15 12:46:24;;;;;;;5.38;3.97;;;;;;;;;;10319946;28;20091;-61
2021/08/15 12:51:23;;;;;;;5.50;3.65;;;;;;;;;;10320126;28;20033;-61
2021/08/15 12:56:25;;;;;;;4.15;3.75;;;;;;;;;;10320000;28;20040;-60
2021/08/15 13:01:25;;;;;;;4.20;3.80;;;;;;;;;;10320070;28;20044;-62
2021/08/15 13:06:25;;;;;;;5.43;3.97;;;;;;;;;;10319375;28;20080;-61
2021/08/15 13:11:23;;;;;;;4.72;4.00;;;;;;;;;;10318273;28;20055;-61
2021/08/15 13:16:22;;;;;;;4.03;3.70;;;;;;;;;;10318932;28;20452;-61
2021/08/15 13:21:22;;;;;;;5.68;3.63;;;;;;;;;;10318933;28;20055;-61
2021/08/15 13:26:20;;;;;;;13.65;12.30;;;;;;;;;;10318519;28;20464;-61
2021/08/15 13:31:18;;;;;;;6.38;4.47;;;;;;;;;;10317232;28;20048;-62
2021/08/15 13:36:17;;;;;;;6.78;6.07;;;;;;;;;;10317892;28;20429;-61
2021/08/15 13:41:17;;;;;;;10.63;4.50;;;;;;;;;;10317987;28;20040;-61
2021/08/15 13:46:15;;;;;;;3.90;3.22;;;;;;;;;;10317142;28;20080;-61
2021/08/15 13:51:14;;;;;;;5.22;4.72;;;;;;;;;;10317838;28;20055;-61
2021/08/15 13:56:12;;;;;;;4.45;4.05;;;;;;;;;;10317441;28;20079;-61
2021/08/15 14:01:13;;;;;;;3.92;3.28;;;;;;;;;;10317575;28;20048;-61
2021/08/15 14:06:11;;;;;;;4.18;3.40;;;;;;;;;;10317293;28;20161;-61
2021/08/15 14:11:10;;;;;;;6.07;5.57;;;;;;;;;;10317127;28;20072;-61
2021/08/15 14:16:09;;;;;;;4.50;3.80;;;;;;;;;;10316695;28;20047;-61
2021/08/15 14:21:10;;;;;;;5.13;3.60;;;;;;;;;;10316567;28;20488;-61
2021/08/15 14:26:08;;;;;;;3.38;3.00;;;;;;;;;;10315323;28;20051;-61
2021/08/15 14:31:06;;;;;;;6.32;5.28;;;;;;;;;;10316789;28;20071;-61
2021/08/15 14:36:05;;;;;;;3.53;3.22;;;;;;;;;;10316909;28;20040;-60
2021/08/15 14:41:05;;;;;;;5.72;3.20;;;;;;;;;;10316445;28;20289;-61
2021/08/15 14:46:04;;;;;;;4.18;3.78;;;;;;;;;;10315650;28;20456;-61
2021/08/15 14:51:03;;;;;;;8.77;8.02;;;;;;;;;;10316046;28;20489;-61
2021/08/15 14:56:04;;;;;;;4.35;3.95;;;;;;;;;;10315919;28;20055;-62
2021/08/15 15:01:04;;;;;;;5.05;3.35;;;;;;;;;;10315670;28;20048;-62
2021/08/15 15:06:05;;;;;;;3.80;3.40;;;;;;;;;;10315879;28;20048;-61
2021/08/15 15:11:03;;;;;;;6.30;4.40;;;;;;;;;;10315579;28;20071;-61
2021/08/15 15:16:01;;;;;;;6.57;4.15;;;;;;;;;;10315119;28;20052;-61
2021/08/15 15:21:01;;;;;;;4.38;3.97;;;;;;;;;;10315301;28;20048;-62
2021/08/15 15:26:00;;;;;;;5.65;4.00;;;;;;;;;;10315671;28;20053;-61
2021/08/15 15:30:58;;;;;;;6.60;5.85;;;;;;;;;;10315022;28;20075;-62
2021/08/15 15:35:56;;;;;;;7.78;5.35;;;;;;;;;;10321363;28;20045;-62
2021/08/15 15:40:56;;;;;;;7.03;6.00;;;;;;;;;;10323155;28;20076;-60
2021/08/15 15:45:54;;;;;;;16.45;14.95;;;;;;;;;;10321789;28;20425;-60
2021/08/15 15:50:53;;;;;;;10.30;9.30;;;;;;;;;;10322501;28;20079;-60
2021/08/15 15:55:52;;;;;;;6.28;5.05;;;;;;;;;;10322032;28;20047;-60
2021/08/15 16:00:51;;;;;;;4.82;4.32;;;;;;;;;;10321761;28;20417;-60
2021/08/15 16:05:50;;;;;;;5.90;4.40;;;;;;;;;;10322117;28;20052;-68
2021/08/15 16:10:48;;;;;;;6.15;4.38;;;;;;;;;;10321610;28;20076;-62
2021/08/15 16:15:48;;;;;;;7.88;5.97;;;;;;;;;;10321618;28;20048;-61
2021/08/15 16:20:50;;;;;;;8.30;5.63;;;;;;;;;;10321293;28;20464;-62
2021/08/15 16:25:48;;;;;;;6.95;4.55;;;;;;;;;;10321057;28;20045;-62
2021/08/15 16:30:47;;;;;;;7.50;5.15;;;;;;;;;;10320678;28;20462;-60
2021/08/15 16:35:45;;;;;;;6.85;5.28;;;;;;;;;;10320979;28;20508;-59
2021/08/15 16:40:45;;;;;;;12.82;10.07;;;;;;;;;;10320382;28;20478;-60
2021/08/15 16:45:43;;;;;;;7.90;6.95;;;;;;;;;;10319806;28;20073;-59
2021/08/15 16:50:43;;;;;;;11.57;9.32;;;;;;;;;;10319819;28;20143;-59
2021/08/15 16:55:44;;;;;;;13.73;10.52;;;;;;;;;;10319797;28;20415;-61
2021/08/15 17:00:44;;;;;;;13.50;11.57;;;;;;;;;;10319504;28;20185;-60
2021/08/15 17:05:43;;;;;;;11.30;10.20;;;;;;;;;;10319446;28;20052;-60
2021/08/15 17:10:41;;;;;;;14.43;10.75;;;;;;;;;;10318647;28;20068;-60
2021/08/15 17:15:40;;;;;;;13.55;10.50;;;;;;;;;;10318562;28;20068;-61
2021/08/15 17:20:43;;;;;;;9.40;8.50;;;;;;;;;;10318824;28;20044;-60
2021/08/15 17:25:41;;;;;;;11.88;6.68;;;;;;;;;;10318547;28;20516;-60
2021/08/15 17:30:40;;;;;;;9.35;5.68;;;;;;;;;;10318370;28;20076;-60
2021/08/15 17:35:38;;;;;;;8.75;7.82;;;;;;;;;;10318081;28;20383;-60
2021/08/15 17:40:38;;;;;;;8.65;4.85;;;;;;;;;;10318266;28;20049;-60
2021/08/15 17:45:37;;;;;;;5.13;4.63;;;;;;;;;;10317332;28;20048;-60
2021/08/15 17:50:36;;;;;;;5.88;5.28;;;;;;;;;;10317788;28;20076;-60
2021/08/15 17:55:36;;;;;;;7.00;4.22;;;;;;;;;;10316624;28;20045;-60
2021/08/15 18:00:35;;;;;;;6.63;4.05;;;;;;;;;;10317038;28;20105;-60
2021/08/15 18:05:35;;;;;;;6.82;4.50;;;;;;;;;;10317097;28;20051;-60
2021/08/15 18:10:34;;;;;;;7.80;5.38;;;;;;;;;;10317220;28;20076;-60
2021/08/15 18:15:32;;;;;;;7.40;3.42;;;;;;;;;;10316861;28;20056;-60
2021/08/15 18:20:32;;;;;;;5.90;3.92;;;;;;;;;;10316573;28;20134;-61
2021/08/15 18:25:30;;;;;;;4.95;4.45;;;;;;;;;;10316413;28;20057;-59
2021/08/15 18:30:29;;;;;;;4.72;4.22;;;;;;;;;;10316079;28;20048;-60
2021/08/15 18:35:27;;;;;;;5.45;4.10;;;;;;;;;;10316852;28;20063;-60
2021/08/15 18:40:27;;;;;;;5.80;3.90;;;;;;;;;;10316298;28;20045;-61
2021/08/15 18:45:25;;;;;;;6.75;4.32;;;;;;;;;;10315755;28;20505;-60
2021/08/15 18:50:24;;;;;;;9.38;5.22;;;;;;;;;;10316492;28;20080;-60
2021/08/15 18:55:22;;;;;;;7.85;5.20;;;;;;;;;;10315935;28;20072;-60
2021/08/15 19:00:22;;;;;;;4.88;4.38;;;;;;;;;;10316239;28;20044;-59
2021/08/15 19:05:21;;;;;;;6.10;4.15;;;;;;;;;;10315682;28;20045;-61
2021/08/15 19:10:24;;;;;;;6.88;4.20;;;;;;;;;;10320733;28;20080;-60
2021/08/15 19:15:24;;;;;;;5.45;4.30;;;;;;;;;;10323659;28;20455;-60
2021/08/15 19:20:24;;;;;;;9.07;3.97;;;;;;;;;;10323440;28;20040;-59
2021/08/15 19:25:22;;;;;;;7.30;4.18;;;;;;;;;;10322990;28;20052;-59
2021/08/15 19:30:23;;;;;;;4.97;4.03;;;;;;;;;;10323027;28;20079;-60
2021/08/15 19:35:23;;;;;;;9.50;4.47;;;;;;;;;;10322903;28;20075;-59
2021/08/15 19:40:21;;;;;;;8.88;4.45;;;;;;;;;;10322464;28;20064;-59
2021/08/15 19:45:19;;;;;;;6.70;4.13;;;;;;;;;;10322241;28;20040;-59
2021/08/15 19:50:37;;;;;;;8.10;4.32;;;;;;;;;;10322076;28;20037;-59
2021/08/15 19:55:35;;;;;;;5.05;3.90;;;;;;;;;;10322375;28;20048;-61
2021/08/15 20:00:34;;;;;;;4.75;4.03;;;;;;;;;;10322404;28;20524;-61
2021/08/15 20:05:33;;;;;;;4.72;4.07;;;;;;;;;;10322862;28;20044;-60
2021/08/15 20:10:33;;;;;;;5.50;4.65;;;;;;;;;;10321270;28;20091;-59
2021/08/15 20:15:31;;;;;;;8.35;4.13;;;;;;;;;;10321376;28;20074;-61
2021/08/15 20:20:30;;;;;;;5.05;4.25;;;;;;;;;;10320698;28;20511;-60
2021/08/15 20:25:28;;;;;;;6.43;4.63;;;;;;;;;;10320934;28;20047;-60
2021/08/15 20:30:28;;;;;;;5.13;4.63;;;;;;;;;;10320738;28;20087;-61
2021/08/15 20:35:26;;;;;;;7.07;4.55;;;;;;;;;;10320640;28;20429;-61
2021/08/15 20:40:24;;;;;;;7.97;4.25;;;;;;;;;;10320509;28;20052;-60
2021/08/15 20:45:23;;;;;;;5.70;4.60;;;;;;;;;;10320316;28;20076;-60
2021/08/15 20:50:23;;;;;;;6.28;4.55;;;;;;;;;;10320484;28;20120;-61
2021/08/15 20:55:21;;;;;;;7.38;4.53;;;;;;;;;;10319789;28;20059;-60
2021/08/15 21:00:19;;;;;;;6.30;4.38;;;;;;;;;;10319664;28;20055;-60
2021/08/15 21:05:21;;;;;;;8.15;4.40;;;;;;;;;;10319444;28;20544;-60
2021/08/15 21:10:21;;;;;;;4.53;3.97;;;;;;;;;;10319422;28;20079;-59
2021/08/15 21:15:19;;;;;;;7.70;4.50;;;;;;;;;;10319034;28;20055;-60
2021/08/15 21:20:18;;;;;;;8.25;4.20;;;;;;;;;;10319517;28;20044;-60
2021/08/15 21:25:16;;;;;;;5.65;4.88;;;;;;;;;;10318444;28;20461;-59
2021/08/15 21:30:16;;;;;;;5.35;4.72;;;;;;;;;;10317553;28;20090;-59
2021/08/15 21:35:14;;;;;;;7.65;3.88;;;;;;;;;;10318580;28;20048;-59
2021/08/15 21:40:14;;;;;;;5.03;4.25;;;;;;;;;;10318143;28;20549;-59
2021/08/15 21:45:13;;;;;;;6.25;3.95;;;;;;;;;;10317967;28;20083;-60
2021/08/15 21:50:13;;;;;;;6.18;4.00;;;;;;;;;;10317594;28;20087;-59
2021/08/15 21:55:11;;;;;;;6.75;4.55;;;;;;;;;;10317349;28;20051;-60
2021/08/15 22:00:10;;;;;;;5.90;3.72;;;;;;;;;;10317235;28;20052;-60
2021/08/15 22:05:09;;;;;;;5.13;4.60;;;;;;;;;;10316538;28;20391;-60
2021/08/15 22:10:10;;;;;;;3.88;3.47;;;;;;;;;;10317082;28;20222;-60
2021/08/15 22:15:09;;;;;;;7.50;4.20;;;;;;;;;;10316920;28;20055;-60
2021/08/15 22:20:08;;;;;;;5.88;4.25;;;;;;;;;;10316667;28;20040;-60
2021/08/15 22:25:07;;;;;;;8.00;3.80;;;;;;;;;;10316516;28;20036;-59
2021/08/15 22:30:08;;;;;;;7.00;4.22;;;;;;;;;;10316427;28;20076;-59
2021/08/15 22:35:07;;;;;;;8.43;4.03;;;;;;;;;;10316860;28;20122;-60
2021/08/15 22:40:06;;;;;;;7.93;3.70;;;;;;;;;;10316190;28;20540;-59
2021/08/15 22:45:04;;;;;;;7.93;4.25;;;;;;;;;;10315953;28;20080;-60
2021/08/15 22:50:04;;;;;;;7.45;4.00;;;;;;;;;;10316381;28;20088;-60
2021/08/15 22:55:03;;;;;;;5.35;3.67;;;;;;;;;;10315427;28;20430;-60
2021/08/15 23:00:01;;;;;;;4.82;4.00;;;;;;;;;;10315727;28;20068;-60
2021/08/15 23:05:00;;;;;;;4.63;4.13;;;;;;;;;;10316703;28;20057;-59
2021/08/15 23:09:59;;;;;;;4.60;3.78;;;;;;;;;;10316591;28;20036;-59
2021/08/15 23:14:58;;;;;;;6.15;4.25;;;;;;;;;;10315404;28;20044;-60
2021/08/15 23:19:56;;;;;;;4.68;4.22;;;;;;;;;;10316392;28;20076;-60
2021/08/15 23:24:54;;;;;;;5.72;3.88;;;;;;;;;;10316270;28;20508;-60
2021/08/15 23:29:54;;;;;;;7.85;4.65;;;;;;;;;;10315988;28;20076;-59
2021/08/15 23:34:52;;;;;;;4.95;4.15;;;;;;;;;;10316201;28;20040;-59
2021/08/15 23:39:50;;;;;;;4.85;4.13;;;;;;;;;;10316084;28;20087;-59
2021/08/15 23:44:48;;;;;;;7.03;4.32;;;;;;;;;;10316118;28;20055;-59
2021/08/15 23:49:48;;;;;;;6.07;3.67;;;;;;;;;;10314765;28;20535;-59
2021/08/15 23:54:46;;;;;;;11.80;4.45;;;;;;;;;;10318189;28;20079;-59
2021/08/15 23:59:44;;;;;;;4.97;4.32;;;;;;;;;;10323032;28;20044;-59
